Stations météo

Publicité
Weeze/Niederrhein, Allemagne (10405): Température de l'air & dewpoint: 11.12.2018 13:00:00 - 17.12.2018 13:00:00 (CET)Weeze/Niederrhein, Allemagne (10405): Vitesse du vent: 11.12.2018 13:00:00 - 17.12.2018 13:00:00 (CET)Weeze/Niederrhein, Allemagne (10405): Direction du vent: 11.12.2018 13:00:00 - 17.12.2018 13:00:00 (CET)Weeze/Niederrhein, Allemagne (10405): visibility: 11.12.2018 13:00:00 - 17.12.2018 13:00:00 (CET)
Date & Time tt [°C] td [°C] ff [km/h] ff [knt] dd vv [km]
17.12.2018 13:00:00 - - - - - -
17.12.2018 12:00:00 7,0 6,0 15 8 SW 9
17.12.2018 11:00:00 6,0 6,0 13 7 SSW 8
17.12.2018 10:00:00 5,0 5,0 11 6 S 9
17.12.2018 09:00:00 4,0 4,0 11 6 SSE 5
17.12.2018 08:00:00 4,0 3,0 13 7 SSE 7
17.12.2018 07:00:00 4,0 3,0 13 7 SE 8
17.12.2018 06:00:00 3,0 3,0 13 7 SSE 9
17.12.2018 05:00:00 3,0 3,0 15 8 SSE 9
17.12.2018 04:00:00 - - - - - -
17.12.2018 03:00:00 - - - - - -
17.12.2018 02:00:00 - - - - - -
17.12.2018 01:00:00 - - - - - -
17.12.2018 00:00:00 3,0 3,0 11 6 SSW 1,6
16.12.2018 23:00:00 3,0 3,0 11 6 S 1,8
16.12.2018 22:00:00 3,0 3,0 11 6 SSW 1,5
16.12.2018 21:00:00 3,0 3,0 9 5 SSW 1,4
16.12.2018 20:00:00 3,0 3,0 11 6 SSW 1,3
16.12.2018 19:00:00 3,0 3,0 11 6 SSW 1,5
16.12.2018 18:00:00 3,0 3,0 13 7 SSW 1,2
16.12.2018 17:00:00 3,0 3,0 9 5 SSW 1,2
16.12.2018 16:00:00 2,0 2,0 9 5 S 1,0
16.12.2018 15:00:00 2,0 2,0 8 4 S 0,7
16.12.2018 14:00:00 1,0 1,0 11 6 SSE 0,7
16.12.2018 13:00:00 1,0 1,0 11 6 SSE 0,8
16.12.2018 12:00:00 1,0 0,0 15 8 S 1,1
16.12.2018 11:00:00 0,0 0,0 11 6 SSE 1,8
16.12.2018 10:00:00 0,0 0,0 11 6 SSE 1,8
16.12.2018 09:00:00 0,0 -1,0 13 7 SSE 4,7
16.12.2018 08:00:00 0,0 -1,0 15 8 SSE 5
16.12.2018 07:00:00 0,0 -2,0 16 9 SSE 7
16.12.2018 06:00:00 0,0 -1,0 16 9 SSE 6
16.12.2018 05:00:00 0,0 -2,0 18 10 SSE 5
16.12.2018 04:00:00 - - - - - -
16.12.2018 03:00:00 - - - - - -
16.12.2018 02:00:00 - - - - - -
16.12.2018 01:00:00 - - - - - -
16.12.2018 00:00:00 0,0 -5,0 26 14 SE 10
15.12.2018 23:00:00 0,0 -5,0 29 16 SE 10
15.12.2018 22:00:00 0,0 -5,0 24 13 SE 10
15.12.2018 21:00:00 0,0 -5,0 22 12 SE 10
15.12.2018 20:00:00 0,0 -5,0 21 11 SE 10
15.12.2018 19:00:00 0,0 -5,0 16 9 SE 10
15.12.2018 18:00:00 0,0 -5,0 13 7 SE 10
15.12.2018 17:00:00 1,0 -5,0 15 8 SE 10
15.12.2018 16:00:00 1,0 -5,0 18 10 SE 10
15.12.2018 15:00:00 1,0 -4,0 21 11 SE 10
15.12.2018 14:00:00 1,0 -4,0 21 11 SE 10
15.12.2018 13:00:00 1,0 -5,0 15 8 SE 10
15.12.2018 12:00:00 1,0 -5,0 8 4 SSE 10
15.12.2018 11:00:00 1,0 -5,0 11 6 SE 10
15.12.2018 10:00:00 1,0 -5,0 9 5 SE 10
15.12.2018 09:00:00 0,0 -6,0 11 6 SSE 10
15.12.2018 08:00:00 1,0 -5,0 9 5 SE 10
15.12.2018 07:00:00 0,0 -4,0 8 4 SE 10
15.12.2018 06:00:00 0,0 -4,0 9 5 ESE 10
15.12.2018 05:00:00 0,0 -4,0 5 3 - 10
15.12.2018 04:00:00 - - - - - -
15.12.2018 03:00:00 - - - - - -
15.12.2018 02:00:00 - - - - - -
15.12.2018 01:00:00 - - - - - -
15.12.2018 00:00:00 1,0 -2,0 5 3 - 10
14.12.2018 23:00:00 1,0 -2,0 5 3 - 10
14.12.2018 22:00:00 1,0 -2,0 5 3 - 10
14.12.2018 21:00:00 1,0 -2,0 4 2 - 10
14.12.2018 20:00:00 1,0 -2,0 4 2 - 10
14.12.2018 19:00:00 1,0 -2,0 2 1 - 10
14.12.2018 18:00:00 1,0 -1,0 4 2 - 10
14.12.2018 17:00:00 1,0 -2,0 5 3 - 10
14.12.2018 16:00:00 1,0 -1,0 8 4 NE 10
14.12.2018 15:00:00 2,0 -1,0 5 3 - 10
14.12.2018 14:00:00 2,0 -1,0 5 3 - 10
14.12.2018 13:00:00 1,0 -1,0 9 5 NE 10
14.12.2018 12:00:00 1,0 -1,0 9 5 ENE 10
14.12.2018 11:00:00 1,0 -1,0 11 6 ENE 9
14.12.2018 10:00:00 1,0 -1,0 11 6 ENE 8
14.12.2018 09:00:00 1,0 -1,0 11 6 ENE 8
14.12.2018 08:00:00 1,0 -1,0 9 5 ENE 8
14.12.2018 07:00:00 0,0 -1,0 9 5 ENE 7
14.12.2018 06:00:00 0,0 -1,0 11 6 ENE 7
14.12.2018 05:00:00 0,0 -1,0 9 5 ENE 8
14.12.2018 04:00:00 - - - - - -
14.12.2018 03:00:00 - - - - - -
14.12.2018 02:00:00 - - - - - -
14.12.2018 01:00:00 - - - - - -
14.12.2018 00:00:00 1,0 0,0 8 4 NE 10
13.12.2018 23:00:00 0,0 -1,0 8 4 NE 10
13.12.2018 22:00:00 1,0 0,0 9 5 ENE 10
13.12.2018 21:00:00 1,0 -1,0 8 4 NE 10
13.12.2018 20:00:00 1,0 -1,0 8 4 NE 10
13.12.2018 19:00:00 1,0 -1,0 5 3 - 10
13.12.2018 18:00:00 1,0 -1,0 5 3 - 10
13.12.2018 17:00:00 2,0 -1,0 9 5 ENE 10
13.12.2018 16:00:00 3,0 -2,0 9 5 ENE 10
13.12.2018 15:00:00 3,0 -2,0 9 5 E 10
13.12.2018 14:00:00 3,0 -2,0 13 7 E 10
13.12.2018 13:00:00 3,0 -2,0 13 7 E 10
13.12.2018 12:00:00 2,0 -1,0 11 6 E 10
13.12.2018 11:00:00 1,0 -1,0 9 5 E 10
13.12.2018 10:00:00 1,0 -1,0 11 6 ENE 10
13.12.2018 09:00:00 0,0 -1,0 9 5 ENE 9
13.12.2018 08:00:00 1,0 0,0 13 7 ENE 7
13.12.2018 07:00:00 1,0 0,0 13 7 ENE 7
13.12.2018 06:00:00 1,0 0,0 9 5 ENE 8
13.12.2018 05:00:00 2,0 0,0 8 4 ENE 10
13.12.2018 04:00:00 - - - - - -
13.12.2018 03:00:00 - - - - - -
13.12.2018 02:00:00 - - - - - -
13.12.2018 01:00:00 - - - - - -
13.12.2018 00:00:00 2,0 1,0 5 3 - 10
12.12.2018 23:00:00 1,0 0,0 8 4 ENE 10
12.12.2018 22:00:00 1,0 0,0 5 3 - 10
12.12.2018 21:00:00 1,0 0,0 4 2 - 10
12.12.2018 20:00:00 1,0 1,0 4 2 - 10
12.12.2018 19:00:00 2,0 1,0 4 2 - 10
12.12.2018 18:00:00 3,0 1,0 4 2 NE 10
12.12.2018 17:00:00 4,0 1,0 5 3 - 10
12.12.2018 16:00:00 4,0 1,0 5 3 - 10
12.12.2018 15:00:00 4,0 2,0 4 2 - 10
12.12.2018 14:00:00 4,0 2,0 5 3 - 10
12.12.2018 13:00:00 4,0 2,0 5 3 - 10
12.12.2018 12:00:00 4,0 2,0 5 3 - 10
12.12.2018 11:00:00 3,0 2,0 - - - 3,4
12.12.2018 10:00:00 2,0 1,0 0 0 N 2,2
12.12.2018 09:00:00 1,0 1,0 4 2 NNE 2,5
12.12.2018 08:00:00 1,0 1,0 0 0 N 4,9
12.12.2018 07:00:00 2,0 2,0 5 3 - 6
12.12.2018 06:00:00 0,0 0,0 4 2 - 6
12.12.2018 05:00:00 0,0 0,0 0 0 N 6
12.12.2018 04:00:00 - - - - - -
12.12.2018 03:00:00 - - - - - -
12.12.2018 02:00:00 - - - - - -
12.12.2018 01:00:00 - - - - - -
12.12.2018 00:00:00 2,0 2,0 4 2 WSW 4,8
11.12.2018 23:00:00 3,0 2,0 4 2 - 10
11.12.2018 22:00:00 5,0 3,0 4 2 - 10
11.12.2018 21:00:00 5,0 3,0 4 2 WNW 10
11.12.2018 20:00:00 5,0 3,0 2 1 - 10
11.12.2018 19:00:00 5,0 3,0 5 3 WNW 10
11.12.2018 18:00:00 6,0 3,0 5 3 WNW 10
11.12.2018 17:00:00 6,0 3,0 5 3 W 10
11.12.2018 16:00:00 7,0 3,0 4 2 WNW 10
11.12.2018 15:00:00 7,0 3,0 9 5 WNW 10
11.12.2018 14:00:00 7,0 3,0 9 5 WNW 10
11.12.2018 13:00:00 7,0 3,0 13 7 WNW 10

tt = Température de l'air
td = dewpoint
ff = Vitesse du vent
dd = Direction du vent
vv = visibility

stations d'obs. à proximité